Time;durP1;ratioP1;P1;durP2;ratioP2;P2;SDS_P1;SDS_P2;PMS_P1;PMS_P2;Temp;Humidity;BMP_temperature;BMP_pressure;BME280_temperature;BME280_humidity;BME280_pressure;Samples;Min_cycle;Max_cycle;Signal;HPM_P1;HPM_P2
2023/09/11 00:00:05;;;;;;;16.87;11.97;;;17.80;43.30;;;;;;5073095;27;46443;-72
2023/09/11 00:02:31;;;;;;;14.13;11.57;;;17.70;43.30;;;;;;5066146;27;46694;-72
2023/09/11 00:04:56;;;;;;;19.33;13.23;;;17.70;43.50;;;;;;5071593;27;46698;-72
2023/09/11 00:07:22;;;;;;;16.90;11.93;;;17.70;43.50;;;;;;5077368;27;46602;-72
2023/09/11 00:09:47;;;;;;;16.70;12.93;;;17.70;43.50;;;;;;5074317;27;46343;-72
2023/09/11 00:12:13;;;;;;;19.50;11.67;;;17.60;43.60;;;;;;5074781;27;46400;-72
2023/09/11 00:14:39;;;;;;;18.67;12.73;;;17.60;43.70;;;;;;5080471;27;46747;-72
2023/09/11 00:17:04;;;;;;;16.53;12.30;;;17.60;43.80;;;;;;5072004;27;46630;-72
2023/09/11 00:19:30;;;;;;;18.20;12.90;;;17.50;43.80;;;;;;5076162;27;46719;-72
2023/09/11 00:21:55;;;;;;;19.17;14.40;;;17.50;44.10;;;;;;5084505;27;46439;-72
2023/09/11 00:24:21;;;;;;;18.70;12.77;;;17.50;44.10;;;;;;5069728;27;46714;-72
2023/09/11 00:26:46;;;;;;;16.50;13.03;;;17.60;44.20;;;;;;5070767;27;46372;-72
2023/09/11 00:29:12;;;;;;;19.53;12.50;;;17.60;43.80;;;;;;5072350;27;46485;-72
2023/09/11 00:31:38;;;;;;;17.17;13.93;;;17.70;43.80;;;;;;5076323;28;46742;-72
2023/09/11 00:34:03;;;;;;;18.77;14.27;;;17.70;43.70;;;;;;5058892;28;46550;-72
2023/09/11 00:36:29;;;;;;;23.70;15.27;;;17.70;43.80;;;;;;5079586;27;46734;-72
2023/09/11 00:38:54;;;;;;;18.80;13.40;;;17.70;44.10;;;;;;5075156;27;45940;-72
2023/09/11 00:41:20;;;;;;;15.47;13.23;;;17.80;44.40;;;;;;5077975;27;46439;-72
2023/09/11 00:43:45;;;;;;;14.83;12.30;;;17.70;44.30;;;;;;5072916;28;46404;-72
2023/09/11 00:46:11;;;;;;;18.30;13.17;;;17.60;44.50;;;;;;5075421;27;46184;-72
2023/09/11 00:48:37;;;;;;;21.50;14.40;;;17.60;44.60;;;;;;5075463;28;46496;-71
2023/09/11 00:51:03;;;;;;;21.33;13.27;;;17.60;44.80;;;;;;5072938;27;46712;-72
2023/09/11 00:53:29;;;;;;;15.67;13.20;;;17.60;45.00;;;;;;5073666;28;46553;-72
2023/09/11 00:55:54;;;;;;;17.70;13.33;;;17.70;45.10;;;;;;5078081;27;45938;-72
2023/09/11 00:58:23;;;;;;;15.57;12.43;;;17.70;45.00;;;;;;5081648;27;46356;-71
2023/09/11 01:00:49;;;;;;;17.90;12.83;;;17.70;44.90;;;;;;5079494;27;46695;-72
2023/09/11 01:03:15;;;;;;;19.03;13.70;;;17.80;46.20;;;;;;5076693;27;46454;-72
2023/09/11 01:05:42;;;;;;;17.43;13.53;;;17.80;45.00;;;;;;5067869;27;46486;-72
2023/09/11 01:08:08;;;;;;;16.57;13.00;;;17.80;45.20;;;;;;5074787;28;46602;-71
2023/09/11 01:10:35;;;;;;;18.60;12.90;;;17.80;45.40;;;;;;5072203;27;46590;-72
2023/09/11 01:13:02;;;;;;;16.87;12.10;;;17.70;45.50;;;;;;5070549;27;46375;-72
2023/09/11 01:15:34;;;;;;;16.70;12.40;;;17.60;45.50;;;;;;5075106;27;46324;-72
2023/09/11 01:18:17;;;;;;;16.80;12.20;;;17.50;45.40;;;;;;5070038;28;47417;-71
2023/09/11 01:21:21;;;;;;;16.00;12.43;;;17.40;45.80;;;;;;5075738;28;45860;-71
2023/09/11 01:24:10;;;;;;;19.80;12.53;;;17.40;46.10;;;;;;5070916;27;47143;-72
2023/09/11 01:27:11;;;;;;;17.50;12.40;;;17.30;46.20;;;;;;5075141;28;46448;-72
2023/09/11 01:29:40;;;;;;;18.53;14.27;;;17.30;46.30;;;;;;5074091;28;47071;-72
2023/09/11 01:32:07;;;;;;;19.43;14.90;;;17.40;46.00;;;;;;5071125;27;46518;-72
2023/09/11 01:34:33;;;;;;;18.53;14.00;;;17.40;45.80;;;;;;5076924;27;46501;-72
2023/09/11 01:36:58;;;;;;;19.30;14.20;;;17.40;45.70;;;;;;5073047;28;46380;-72
2023/09/11 01:39:24;;;;;;;19.90;13.87;;;17.40;46.10;;;;;;5074061;27;46456;-72
2023/09/11 01:41:54;;;;;;;17.40;13.20;;;17.30;46.60;;;;;;5062553;27;46468;-71
2023/09/11 01:44:46;;;;;;;14.30;11.83;;;17.20;47.00;;;;;;5079359;27;46454;-71
2023/09/11 01:47:16;;;;;;;19.00;13.07;;;17.10;47.20;;;;;;5070699;28;46373;-72
2023/09/11 01:49:44;;;;;;;17.13;12.60;;;17.00;47.40;;;;;;5067206;28;46709;-72
2023/09/11 01:52:11;;;;;;;20.13;14.13;;;17.00;47.50;;;;;;5077114;27;46444;-72
2023/09/11 01:54:37;;;;;;;18.37;14.80;;;17.00;47.40;;;;;;5068493;28;46381;-71
2023/09/11 01:57:05;;;;;;;22.23;17.03;;;17.10;47.60;;;;;;5071610;28;46464;-72
2023/09/11 01:59:32;;;;;;;20.13;15.90;;;17.20;47.70;;;;;;5077163;27;46563;-72
2023/09/11 02:01:57;;;;;;;21.40;17.00;;;17.40;48.30;;;;;;5072474;28;46511;-72
2023/09/11 02:04:23;;;;;;;24.00;17.57;;;17.50;48.70;;;;;;5054376;28;46518;-72
2023/09/11 02:06:48;;;;;;;23.23;16.87;;;17.60;49.30;;;;;;5070346;27;46792;-72
2023/09/11 02:09:14;;;;;;;23.13;17.43;;;17.70;49.30;;;;;;5071089;28;46454;-72
2023/09/11 02:11:40;;;;;;;23.13;17.00;;;17.80;49.80;;;;;;5070948;27;46503;-72
2023/09/11 02:14:05;;;;;;;21.63;17.70;;;17.80;50.20;;;;;;5053885;28;45966;-72
2023/09/11 02:16:31;;;;;;;23.40;17.67;;;17.80;50.60;;;;;;5073766;27;46626;-72
2023/09/11 02:18:57;;;;;;;24.40;18.77;;;17.80;50.90;;;;;;5062987;28;47350;-72
2023/09/11 02:21:22;;;;;;;23.00;18.73;;;17.70;51.10;;;;;;5071907;27;46519;-72
2023/09/11 02:23:48;;;;;;;28.40;18.10;;;17.70;51.50;;;;;;5075888;27;46381;-72
2023/09/11 02:26:13;;;;;;;22.13;16.43;;;17.70;51.70;;;;;;5072290;28;46354;-72
2023/09/11 02:28:40;;;;;;;21.37;16.50;;;17.60;52.20;;;;;;5079153;27;47257;-72
2023/09/11 02:31:06;;;;;;;21.40;17.10;;;17.50;52.70;;;;;;5075307;27;46500;-72
2023/09/11 02:33:32;;;;;;;21.70;16.37;;;17.40;53.00;;;;;;5070670;27;46614;-72
2023/09/11 02:35:58;;;;;;;22.17;17.03;;;17.30;53.40;;;;;;5084918;27;46542;-72
2023/09/11 02:38:24;;;;;;;24.77;18.23;;;17.20;53.90;;;;;;5071703;28;47785;-72
2023/09/11 02:40:49;;;;;;;24.90;16.90;;;17.20;54.40;;;;;;5080466;27;46359;-72
2023/09/11 02:43:15;;;;;;;23.53;17.73;;;17.10;54.70;;;;;;5072679;27;46466;-70
2023/09/11 02:45:43;;;;;;;29.27;17.27;;;17.10;55.00;;;;;;5073096;27;46475;-72
2023/09/11 02:48:08;;;;;;;23.57;17.60;;;17.00;55.00;;;;;;5071479;27;47324;-71
2023/09/11 02:50:34;;;;;;;25.23;18.20;;;17.00;55.10;;;;;;5059823;28;46350;-72
2023/09/11 02:53:00;;;;;;;21.83;17.30;;;17.00;54.70;;;;;;5073419;28;46733;-71
2023/09/11 02:55:26;;;;;;;28.90;17.97;;;17.10;54.50;;;;;;5078231;28;46420;-70
2023/09/11 02:57:51;;;;;;;21.03;17.50;;;17.10;54.20;;;;;;5084725;27;48051;-70
2023/09/11 03:00:17;;;;;;;24.50;18.03;;;17.10;54.00;;;;;;5059703;28;46609;-71
2023/09/11 03:02:42;;;;;;;24.77;17.10;;;17.10;53.90;;;;;;5063137;28;46328;-71
2023/09/11 03:05:08;;;;;;;25.00;15.90;;;17.10;54.70;;;;;;5074731;28;46496;-71
2023/09/11 03:07:34;;;;;;;29.83;18.00;;;17.10;53.90;;;;;;5077105;28;46623;-71
2023/09/11 03:10:01;;;;;;;24.17;17.27;;;17.10;53.80;;;;;;5085785;27;46421;-72
2023/09/11 03:12:28;;;;;;;23.30;16.77;;;17.10;53.80;;;;;;5075313;28;46540;-71
2023/09/11 03:14:53;;;;;;;22.50;16.63;;;17.10;53.90;;;;;;5077584;28;46424;-71
2023/09/11 03:17:19;;;;;;;23.00;18.00;;;17.00;53.80;;;;;;5069751;27;47681;-71
2023/09/11 03:19:44;;;;;;;26.93;17.87;;;17.00;53.80;;;;;;5059160;27;46175;-69
2023/09/11 03:22:10;;;;;;;26.63;19.33;;;17.00;53.70;;;;;;5060638;27;46383;-71
2023/09/11 03:24:36;;;;;;;26.07;19.37;;;17.00;53.80;;;;;;5063625;27;46684;-69
2023/09/11 03:27:02;;;;;;;22.27;18.60;;;17.00;53.90;;;;;;5062644;27;46608;-69
2023/09/11 03:29:28;;;;;;;24.60;18.17;;;17.00;54.10;;;;;;5061628;27;45814;-69
2023/09/11 03:31:53;;;;;;;30.70;20.27;;;17.00;54.30;;;;;;5065347;28;46555;-70
2023/09/11 03:34:19;;;;;;;26.63;20.37;;;17.00;54.40;;;;;;5046646;28;46718;-70
2023/09/11 03:36:45;;;;;;;26.10;20.23;;;17.00;54.60;;;;;;5064705;27;47181;-69
2023/09/11 03:39:10;;;;;;;20.77;17.43;;;16.90;54.50;;;;;;5065032;27;45895;-70
2023/09/11 03:41:36;;;;;;;24.13;18.40;;;17.00;54.70;;;;;;5062251;27;46750;-70
2023/09/11 03:44:01;;;;;;;20.87;15.40;;;17.00;54.80;;;;;;5068360;27;46526;-70
2023/09/11 03:46:27;;;;;;;19.73;14.60;;;16.80;55.00;;;;;;5067107;27;46943;-68
2023/09/11 03:48:52;;;;;;;21.50;15.20;;;16.70;55.30;;;;;;5047811;28;46526;-70
2023/09/11 03:51:18;;;;;;;21.20;15.03;;;16.60;55.50;;;;;;5067631;27;46418;-69
2023/09/11 03:53:44;;;;;;;20.00;15.00;;;16.50;55.70;;;;;;5069967;27;46199;-71
2023/09/11 03:56:13;;;;;;;32.33;15.40;;;16.40;55.90;;;;;;5066865;27;46443;-68
2023/09/11 03:58:42;;;;;;;27.93;15.10;;;16.40;55.80;;;;;;5067967;27;46420;-69
2023/09/11 04:01:08;;;;;;;25.60;16.03;;;16.30;55.70;;;;;;5067664;27;46450;-71
2023/09/11 04:03:33;;;;;;;21.23;15.23;;;16.30;55.50;;;;;;5065830;27;46432;-70
2023/09/11 04:05:59;;;;;;;20.67;15.87;;;16.30;55.60;;;;;;5067262;27;47005;-68
2023/09/11 04:08:25;;;;;;;22.70;15.07;;;16.20;55.60;;;;;;5068924;27;46457;-73
2023/09/11 04:10:50;;;;;;;23.80;15.57;;;16.20;55.70;;;;;;5068991;27;46575;-71
2023/09/11 04:13:16;;;;;;;23.87;16.47;;;16.20;55.60;;;;;;5066175;27;46392;-70
2023/09/11 04:15:43;;;;;;;24.40;14.10;;;16.10;55.60;;;;;;5067343;28;47191;-69
2023/09/11 04:18:09;;;;;;;19.20;14.87;;;16.10;55.40;;;;;;5066797;27;46495;-70
2023/09/11 04:20:35;;;;;;;21.47;14.90;;;16.10;55.40;;;;;;5067449;28;46522;-70
2023/09/11 04:23:02;;;;;;;30.93;16.10;;;16.00;55.30;;;;;;5063907;27;46380;-70
2023/09/11 04:25:28;;;;;;;17.93;14.63;;;16.00;55.40;;;;;;5066846;27;46481;-70
2023/09/11 04:27:54;;;;;;;19.43;13.80;;;16.00;55.30;;;;;;5067648;27;46733;-70
2023/09/11 04:30:20;;;;;;;33.27;16.20;;;15.90;55.20;;;;;;5068045;27;46416;-71
2023/09/11 04:32:45;;;;;;;23.83;16.80;;;16.00;55.20;;;;;;5064151;27;46765;-73
2023/09/11 04:35:11;;;;;;;19.20;15.20;;;15.90;55.10;;;;;;5066280;27;46361;-70
2023/09/11 04:37:37;;;;;;;23.50;14.67;;;15.90;55.00;;;;;;5067175;27;46702;-70
2023/09/11 04:40:05;;;;;;;23.73;14.87;;;15.90;54.90;;;;;;5066863;27;46435;-71
2023/09/11 04:42:31;;;;;;;19.27;15.00;;;15.90;54.80;;;;;;5062525;27;46635;-70
2023/09/11 04:44:58;;;;;;;22.40;15.63;;;15.90;54.70;;;;;;5067168;27;47328;-71
2023/09/11 04:47:25;;;;;;;20.93;15.40;;;15.90;54.60;;;;;;5070572;28;46499;-71
2023/09/11 04:49:51;;;;;;;19.87;15.30;;;16.00;54.70;;;;;;5068578;27;46504;-73
2023/09/11 04:52:17;;;;;;;20.80;15.40;;;16.00;54.40;;;;;;5065237;27;46459;-69
2023/09/11 04:54:42;;;;;;;25.37;15.90;;;16.00;54.50;;;;;;5047482;27;45893;-70
2023/09/11 04:57:08;;;;;;;21.90;16.27;;;16.00;54.20;;;;;;5067591;27;46473;-70
2023/09/11 04:59:33;;;;;;;24.47;16.13;;;16.00;54.10;;;;;;5066004;27;46546;-70
2023/09/11 05:01:59;;;;;;;29.77;16.00;;;16.10;54.00;;;;;;5067644;27;46748;-70
2023/09/11 05:04:25;;;;;;;22.00;14.10;;;16.20;53.90;;;;;;5067695;27;46955;-71
2023/09/11 05:06:50;;;;;;;20.63;16.87;;;16.20;53.70;;;;;;5064594;27;46404;-70
2023/09/11 05:09:16;;;;;;;19.07;14.70;;;16.20;53.70;;;;;;5068858;27;46455;-69
2023/09/11 05:11:42;;;;;;;23.50;15.37;;;16.30;53.60;;;;;;5067821;27;46476;-70
2023/09/11 05:14:07;;;;;;;23.07;14.50;;;16.30;53.30;;;;;;5067995;27;46451;-70
2023/09/11 05:16:33;;;;;;;25.53;17.30;;;16.40;53.30;;;;;;5065877;27;46685;-71
2023/09/11 05:18:59;;;;;;;23.03;15.10;;;16.40;53.10;;;;;;5066517;27;46389;-71
2023/09/11 05:21:25;;;;;;;19.53;14.57;;;16.50;53.00;;;;;;5063214;27;46415;-70
2023/09/11 05:23:51;;;;;;;21.60;13.90;;;16.50;53.00;;;;;;5067065;27;46370;-71
2023/09/11 05:26:16;;;;;;;17.53;12.97;;;16.60;53.20;;;;;;5049207;28;46423;-69
2023/09/11 05:28:42;;;;;;;20.80;13.40;;;16.70;52.70;;;;;;5067260;27;46696;-70
2023/09/11 05:31:08;;;;;;;23.60;15.43;;;17.10;52.70;;;;;;5066467;28;46467;-71
2023/09/11 05:33:34;;;;;;;21.17;12.13;;;17.50;53.40;;;;;;5065256;27;48132;-71
2023/09/11 05:36:01;;;;;;;17.87;12.70;;;17.90;53.80;;;;;;5065024;27;46415;-70
2023/09/11 05:38:26;;;;;;;18.90;12.10;;;18.30;53.30;;;;;;5068213;27;46776;-69
2023/09/11 05:40:52;;;;;;;15.90;11.17;;;18.80;52.60;;;;;;5050543;27;46768;-70
2023/09/11 05:43:17;;;;;;;14.43;10.87;;;19.20;52.00;;;;;;5062022;27;46724;-71
2023/09/11 05:45:43;;;;;;;14.23;11.30;;;19.60;49.80;;;;;;5066551;27;46558;-69
2023/09/11 05:48:11;;;;;;;15.27;10.50;;;19.90;48.20;;;;;;5067987;28;45805;-71
2023/09/11 05:50:37;;;;;;;15.90;12.03;;;20.30;47.20;;;;;;5064421;27;46476;-70
2023/09/11 05:53:04;;;;;;;17.57;13.03;;;20.60;45.20;;;;;;5063182;28;46590;-71
2023/09/11 05:55:29;;;;;;;15.20;11.13;;;20.80;43.20;;;;;;5065736;28;45833;-70
2023/09/11 05:57:55;;;;;;;15.73;11.73;;;21.00;40.30;;;;;;5066312;28;46479;-72
2023/09/11 06:00:21;;;;;;;15.80;11.97;;;20.90;39.00;;;;;;5063935;28;46557;-70
2023/09/11 06:02:46;;;;;;;15.43;12.60;;;20.70;39.00;;;;;;5062461;28;46386;-69
2023/09/11 06:05:12;;;;;;;16.43;13.60;;;20.50;39.40;;;;;;5046323;28;46575;-69
2023/09/11 06:07:38;;;;;;;18.57;13.30;;;20.40;40.30;;;;;;5065066;28;46541;-69
2023/09/11 06:10:04;;;;;;;15.50;12.03;;;20.40;41.50;;;;;;5064950;28;46436;-70
2023/09/11 06:12:30;;;;;;;15.73;11.93;;;20.60;41.80;;;;;;5057025;27;46997;-71
2023/09/11 06:14:56;;;;;;;17.20;12.33;;;21.20;39.50;;;;;;5064657;27;46111;-69
2023/09/11 06:17:21;;;;;;;16.90;12.60;;;21.60;37.00;;;;;;5064184;27;46354;-70
2023/09/11 06:19:47;;;;;;;16.80;12.97;;;21.50;37.10;;;;;;5061544;27;46759;-70
2023/09/11 06:22:12;;;;;;;17.60;13.67;;;21.30;37.50;;;;;;5062180;27;47099;-72
2023/09/11 06:24:38;;;;;;;25.90;14.23;;;21.30;38.00;;;;;;5060648;27;46666;-71
2023/09/11 06:27:08;;;;;;;15.83;13.87;;;21.20;38.50;;;;;;5064133;27;46524;-71
2023/09/11 06:29:34;;;;;;;20.43;13.43;;;21.30;39.00;;;;;;5062607;27;46630;-69
2023/09/11 06:38:28;;;;;;;15.70;13.40;;;21.60;39.20;;;;;;5092021;27;47027;-78
2023/09/11 06:40:54;;;;;;;15.73;12.40;;;21.80;39.00;;;;;;5102436;27;46913;-80
2023/09/11 06:43:20;;;;;;;19.60;13.07;;;21.90;39.10;;;;;;5105272;27;46616;-81
2023/09/11 06:45:45;;;;;;;20.53;12.97;;;22.00;38.80;;;;;;5097637;27;46560;-81
2023/09/11 06:48:11;;;;;;;15.47;13.10;;;22.20;38.80;;;;;;5098111;27;46676;-80
2023/09/11 06:50:38;;;;;;;16.50;13.90;;;22.30;38.50;;;;;;5106813;27;46520;-79
2023/09/11 06:53:06;;;;;;;17.50;12.87;;;22.40;38.30;;;;;;5090337;27;48349;-80
2023/09/11 06:55:32;;;;;;;15.40;12.00;;;22.50;38.20;;;;;;5103926;27;46632;-82
2023/09/11 06:58:00;;;;;;;17.33;13.23;;;22.70;38.10;;;;;;5103605;27;46614;-82
2023/09/11 07:00:26;;;;;;;18.80;13.10;;;22.80;37.90;;;;;;5108827;27;46492;-84
2023/09/11 07:02:51;;;;;;;15.50;11.40;;;22.90;37.50;;;;;;5094987;27;48213;-81
2023/09/11 07:05:18;;;;;;;16.23;12.17;;;23.10;36.90;;;;;;5091596;27;46434;-82
2023/09/11 07:07:44;;;;;;;18.53;11.97;;;23.10;36.90;;;;;;5105344;27;46617;-82
2023/09/11 07:10:14;;;;;;;14.70;12.50;;;23.10;36.90;;;;;;5106318;27;46564;-79
2023/09/11 07:12:40;;;;;;;21.97;13.33;;;23.20;37.00;;;;;;5105677;27;46590;-79
2023/09/11 07:15:06;;;;;;;19.47;13.10;;;23.40;37.20;;;;;;5108493;27;46588;-85
2023/09/11 07:17:32;;;;;;;18.10;12.93;;;23.50;37.30;;;;;;5091602;27;46697;-81
2023/09/11 07:19:57;;;;;;;18.57;11.30;;;23.60;37.20;;;;;;5108132;27;46504;-86
2023/09/11 07:22:23;;;;;;;16.60;12.00;;;23.80;36.40;;;;;;5094928;27;47906;-84
2023/09/11 07:24:48;;;;;;;16.23;12.13;;;24.00;35.60;;;;;;5109470;27;46558;-85
2023/09/11 07:27:15;;;;;;;13.80;11.70;;;24.10;35.00;;;;;;5106136;27;46513;-81
2023/09/11 07:29:40;;;;;;;25.40;11.77;;;24.20;34.70;;;;;;5104071;27;46983;-79
2023/09/11 07:32:06;;;;;;;15.83;11.33;;;24.20;34.40;;;;;;5107922;27;48496;-84
2023/09/11 07:34:32;;;;;;;19.00;12.40;;;24.40;34.10;;;;;;5106505;27;46937;-84
2023/09/11 07:36:58;;;;;;;14.00;10.80;;;24.60;33.70;;;;;;5106549;27;46504;-81
2023/09/11 07:39:23;;;;;;;15.33;10.60;;;24.70;33.20;;;;;;5104894;27;45947;-80
2023/09/11 07:41:49;;;;;;;17.87;10.70;;;24.80;32.70;;;;;;5089088;27;48348;-81
2023/09/11 07:44:15;;;;;;;14.50;10.90;;;24.80;32.50;;;;;;5089133;27;46462;-80
2023/09/11 07:46:40;;;;;;;17.37;9.90;;;24.80;32.60;;;;;;5090442;27;46475;-81
2023/09/11 07:49:06;;;;;;;16.53;9.93;;;24.80;32.10;;;;;;5102461;27;46609;-81
2023/09/11 07:51:32;;;;;;;12.00;9.33;;;25.00;31.40;;;;;;5107578;27;46780;-82
2023/09/11 07:53:58;;;;;;;11.57;9.20;;;25.00;30.70;;;;;;5087612;27;47062;-81
2023/09/11 07:56:24;;;;;;;14.70;10.03;;;25.00;30.00;;;;;;5107302;27;47163;-80
2023/09/11 07:58:50;;;;;;;13.63;10.30;;;25.10;29.80;;;;;;5108700;27;46763;-79
2023/09/11 08:01:17;;;;;;;14.63;10.17;;;25.20;29.20;;;;;;5087558;27;48376;-80
2023/09/11 08:03:44;;;;;;;14.23;9.40;;;25.20;28.90;;;;;;5105822;27;46436;-82
2023/09/11 08:06:10;;;;;;;19.00;9.90;;;25.50;28.40;;;;;;5104472;27;46460;-83
2023/09/11 08:08:35;;;;;;;13.93;10.30;;;25.70;27.90;;;;;;5103573;27;46405;-85
2023/09/11 08:11:20;;;;;;;21.67;9.27;;;25.70;27.40;;;;;;5107418;27;46411;-81
2023/09/11 08:13:46;;;;;;;12.00;8.50;;;25.70;26.90;;;;;;5103092;27;46432;-80
2023/09/11 08:16:12;;;;;;;11.57;9.13;;;25.70;27.00;;;;;;5106258;27;46752;-81
2023/09/11 08:18:38;;;;;;;12.30;9.33;;;25.80;26.40;;;;;;5105624;27;46966;-81
2023/09/11 08:21:04;;;;;;;11.97;9.33;;;25.90;26.40;;;;;;5091377;27;48273;-82
2023/09/11 08:23:30;;;;;;;13.90;9.83;;;25.90;26.40;;;;;;5085494;27;46526;-82
2023/09/11 08:25:57;;;;;;;15.00;9.27;;;25.80;26.00;;;;;;5106595;27;46513;-83
2023/09/11 08:28:22;;;;;;;12.47;8.53;;;25.70;26.00;;;;;;5110206;27;46461;-81
2023/09/11 08:30:50;;;;;;;13.90;9.60;;;25.80;25.70;;;;;;5109990;27;46457;-82
2023/09/11 08:33:16;;;;;;;10.20;8.13;;;25.90;25.30;;;;;;5108059;27;46405;-84
2023/09/11 08:35:42;;;;;;;14.40;9.07;;;26.00;24.60;;;;;;5095363;27;47020;-80
2023/09/11 08:38:08;;;;;;;13.03;8.60;;;26.00;24.30;;;;;;5100701;27;46601;-82
2023/09/11 08:40:36;;;;;;;13.90;8.73;;;26.10;24.10;;;;;;5112557;27;46705;-81
2023/09/11 08:43:02;;;;;;;11.77;8.80;;;26.10;23.80;;;;;;5094489;27;46500;-82
2023/09/11 08:45:28;;;;;;;11.37;8.10;;;26.20;23.60;;;;;;5109237;27;46358;-82
2023/09/11 08:47:58;;;;;;;12.37;8.03;;;26.30;23.10;;;;;;5109021;27;46971;-82
2023/09/11 08:50:34;;;;;;;11.37;8.10;;;26.20;22.90;;;;;;5112250;27;46274;-81
2023/09/11 08:53:01;;;;;;;14.73;8.13;;;26.40;22.30;;;;;;5113816;27;46937;-82
2023/09/11 08:55:28;;;;;;;10.30;8.10;;;26.40;22.40;;;;;;5114825;27;46604;-83
2023/09/11 08:57:57;;;;;;;9.50;8.40;;;26.60;21.70;;;;;;5108062;27;46626;-82
2023/09/11 09:00:24;;;;;;;14.20;8.63;;;26.60;21.70;;;;;;5094436;27;48415;-83
2023/09/11 09:02:50;;;;;;;10.60;8.57;;;26.60;21.60;;;;;;5092831;27;45935;-81
2023/09/11 09:05:17;;;;;;;14.97;8.20;;;26.70;21.40;;;;;;5096500;27;45905;-78
2023/09/11 09:07:44;;;;;;;12.20;8.60;;;26.90;21.00;;;;;;5111648;27;47027;-81
2023/09/11 09:10:11;;;;;;;11.53;8.20;;;27.10;20.50;;;;;;5109769;27;46689;-81
2023/09/11 09:12:38;;;;;;;14.60;8.20;;;27.10;20.20;;;;;;5107437;27;46487;-83
2023/09/11 09:15:04;;;;;;;15.03;7.53;;;27.20;19.90;;;;;;5111282;27;47035;-79
2023/09/11 09:17:30;;;;;;;23.50;9.37;;;27.40;19.40;;;;;;5109152;27;46390;-83
2023/09/11 09:19:56;;;;;;;10.93;8.63;;;27.40;19.10;;;;;;5111874;27;47168;-81
2023/09/11 09:22:21;;;;;;;11.10;8.70;;;27.50;19.10;;;;;;5114832;27;46923;-82
2023/09/11 09:24:56;;;;;;;10.30;8.33;;;27.50;19.00;;;;;;5101729;27;47475;-78
2023/09/11 09:27:24;;;;;;;12.07;7.77;;;27.60;18.40;;;;;;5109871;27;46398;-79
2023/09/11 09:29:50;;;;;;;9.90;8.33;;;27.70;18.20;;;;;;5110865;27;46579;-80
2023/09/11 09:32:17;;;;;;;12.63;7.37;;;27.70;17.70;;;;;;5111827;27;46665;-79
2023/09/11 09:34:49;;;;;;;14.13;7.93;;;27.70;17.60;;;;;;5107084;27;47106;-79
2023/09/11 09:37:16;;;;;;;8.53;7.13;;;27.70;17.30;;;;;;5110360;27;46856;-81
2023/09/11 09:39:43;;;;;;;11.00;8.67;;;27.70;17.50;;;;;;5108740;27;47334;-79
2023/09/11 09:42:08;;;;;;;11.93;8.40;;;27.90;17.50;;;;;;5090024;27;46423;-79
2023/09/11 09:44:39;;;;;;;10.67;8.13;;;28.00;17.00;;;;;;5089737;27;46179;-78
2023/09/11 09:47:09;;;;;;;13.63;8.23;;;28.00;16.60;;;;;;5111015;27;46468;-82
2023/09/11 09:49:56;;;;;;;12.53;8.57;;;28.00;16.50;;;;;;5112914;27;46875;-78
2023/09/11 09:52:26;;;;;;;9.40;7.77;;;27.90;16.50;;;;;;5109688;27;46525;-79
2023/09/11 09:54:54;;;;;;;11.20;8.13;;;27.80;16.40;;;;;;5090942;27;47358;-80
2023/09/11 09:57:22;;;;;;;9.60;7.83;;;27.80;16.50;;;;;;5100763;27;46583;-81
2023/09/11 09:59:58;;;;;;;9.50;7.93;;;28.10;16.50;;;;;;5093918;27;48108;-79
2023/09/11 10:02:29;;;;;;;12.87;8.37;;;28.30;16.60;;;;;;5111587;27;46922;-81
2023/09/11 10:04:56;;;;;;;9.53;7.50;;;28.40;15.60;;;;;;5115151;27;46322;-80
2023/09/11 10:07:44;;;;;;;14.10;8.13;;;28.20;15.80;;;;;;5110946;27;46664;-80
2023/09/11 10:10:24;;;;;;;11.53;7.20;;;28.30;15.50;;;;;;5094317;27;47890;-81
2023/09/11 10:13:10;;;;;;;11.97;7.70;;;28.30;15.30;;;;;;5093194;27;46416;-79
2023/09/11 10:15:37;;;;;;;20.97;8.00;;;28.40;15.10;;;;;;5106861;27;46609;-79
2023/09/11 10:18:07;;;;;;;13.63;6.90;;;28.40;15.10;;;;;;5111071;27;46485;-83
2023/09/11 10:20:33;;;;;;;11.07;8.33;;;28.50;14.80;;;;;;5105555;27;49138;-82
2023/09/11 10:23:00;;;;;;;10.00;7.20;;;28.60;14.60;;;;;;5120632;27;46480;-83
2023/09/11 10:25:29;;;;;;;9.53;7.17;;;28.50;14.10;;;;;;5110142;27;46686;-81
2023/09/11 10:28:02;;;;;;;12.37;7.93;;;28.50;13.90;;;;;;5098204;27;46765;-82
2023/09/11 10:30:36;;;;;;;16.83;7.50;;;28.70;13.70;;;;;;5108414;27;46553;-81
2023/09/11 10:33:11;;;;;;;9.27;7.30;;;28.80;13.70;;;;;;5099043;27;46775;-83
2023/09/11 10:35:40;;;;;;;11.83;6.80;;;28.90;13.50;;;;;;5109104;27;46464;-83
2023/09/11 10:38:08;;;;;;;11.27;7.77;;;28.90;12.90;;;;;;5107666;27;46620;-84
2023/09/11 10:40:35;;;;;;;10.10;7.17;;;29.00;12.40;;;;;;5108134;27;47573;-82
2023/09/11 10:43:01;;;;;;;9.50;6.90;;;29.00;12.00;;;;;;5107511;27;46382;-83
2023/09/11 10:45:32;;;;;;;12.30;7.47;;;29.10;11.60;;;;;;5089551;27;46901;-82
2023/09/11 10:47:58;;;;;;;11.90;6.83;;;29.00;10.20;;;;;;5107486;27;47004;-81
2023/09/11 10:50:44;;;;;;;8.90;5.90;;;29.00;10.70;;;;;;5107175;27;46764;-82
2023/09/11 10:53:09;;;;;;;9.73;7.20;;;29.20;10.10;;;;;;5085993;27;46593;-83
2023/09/11 10:55:35;;;;;;;7.97;6.40;;;29.30;10.00;;;;;;5087305;27;46535;-83
2023/09/11 10:58:06;;;;;;;9.93;7.27;;;29.30;10.10;;;;;;5088841;27;47924;-81
2023/09/11 11:00:38;;;;;;;12.10;6.30;;;29.30;9.90;;;;;;5090549;27;49311;-80
2023/09/11 11:03:07;;;;;;;8.23;6.23;;;29.10;9.10;;;;;;5112646;27;46858;-82
2023/09/11 11:05:33;;;;;;;9.83;6.50;;;29.10;8.10;;;;;;5095005;27;46521;-81
2023/09/11 11:07:59;;;;;;;8.10;6.20;;;29.10;7.70;;;;;;5109890;27;46527;-82
2023/09/11 11:10:26;;;;;;;11.30;6.00;;;29.00;7.40;;;;;;5108221;27;46801;-81
2023/09/11 11:13:06;;;;;;;9.20;5.70;;;29.10;7.20;;;;;;5107764;27;46463;-81
2023/09/11 11:15:32;;;;;;;11.30;6.20;;;29.10;7.20;;;;;;5108410;27;46613;-78
2023/09/11 11:18:09;;;;;;;10.50;5.90;;;29.10;5.70;;;;;;5105269;27;46669;-82
2023/09/11 11:20:36;;;;;;;7.87;6.23;;;29.00;5.60;;;;;;5091095;27;48309;-82
2023/09/11 11:23:10;;;;;;;10.20;5.77;;;28.90;5.60;;;;;;5107977;27;46505;-79
2023/09/11 11:25:39;;;;;;;9.80;6.23;;;29.00;5.60;;;;;;5092587;27;46819;-84
2023/09/11 11:28:16;;;;;;;9.43;5.97;;;29.10;5.70;;;;;;5091057;27;46431;-84
2023/09/11 11:30:44;;;;;;;11.53;6.03;;;29.20;5.20;;;;;;5113142;27;46731;-83
2023/09/11 11:33:14;;;;;;;9.43;5.80;;;29.30;5.70;;;;;;5089201;27;46474;-82
2023/09/11 11:35:44;;;;;;;10.77;5.87;;;29.40;4.90;;;;;;5104847;27;45840;-81
2023/09/11 11:38:15;;;;;;;8.63;5.60;;;29.40;4.00;;;;;;5104609;27;46607;-82
2023/09/11 11:40:41;;;;;;;64.60;7.30;;;29.30;3.50;;;;;;5091407;27;49242;-82
2023/09/11 11:43:07;;;;;;;26.43;6.47;;;29.10;3.10;;;;;;5087884;27;46500;-82
2023/09/11 11:45:36;;;;;;;10.40;5.63;;;29.10;3.40;;;;;;5090957;27;46653;-82
2023/09/11 11:48:01;;;;;;;9.37;5.87;;;29.20;3.30;;;;;;5106675;27;46913;-79
2023/09/11 11:50:30;;;;;;;7.97;5.43;;;29.20;3.30;;;;;;5090632;27;47535;-83
2023/09/11 11:52:56;;;;;;;11.47;6.00;;;29.20;3.80;;;;;;5107911;27;46473;-81
2023/09/11 11:55:24;;;;;;;9.57;5.47;;;29.20;3.50;;;;;;5109350;27;46598;-78
2023/09/11 11:57:52;;;;;;;8.47;5.50;;;29.20;4.00;;;;;;5103867;27;47036;-81
2023/09/11 12:00:18;;;;;;;7.73;5.73;;;29.20;3.20;;;;;;5107697;27;46653;-81
2023/09/11 12:02:44;;;;;;;11.80;5.20;;;29.30;3.20;;;;;;5092475;27;47075;-81
2023/09/11 12:05:14;;;;;;;8.03;5.10;;;29.30;3.20;;;;;;5114810;27;46516;-83
2023/09/11 12:07:40;;;;;;;9.03;5.33;;;29.20;3.50;;;;;;5102675;27;46542;-83
2023/09/11 12:10:12;;;;;;;13.57;5.53;;;29.30;3.00;;;;;;5110810;27;46422;-81
2023/09/11 12:12:40;;;;;;;8.93;5.50;;;29.10;2.80;;;;;;5106973;27;46722;-80
2023/09/11 12:15:07;;;;;;;8.90;5.37;;;29.10;2.80;;;;;;5109942;27;46448;-80
2023/09/11 12:17:33;;;;;;;6.90;5.20;;;29.20;2.30;;;;;;5109114;27;46613;-82
2023/09/11 12:20:16;;;;;;;11.47;5.77;;;29.30;1.30;;;;;;5112912;27;46761;-83
2023/09/11 12:22:43;;;;;;;7.67;5.03;;;29.30;1.00;;;;;;5117150;27;46447;-80
2023/09/11 12:25:09;;;;;;;13.40;5.53;;;29.40;1.00;;;;;;5107780;27;46808;-82
2023/09/11 12:27:35;;;;;;;6.30;5.10;;;29.30;1.00;;;;;;5111564;27;46448;-81
2023/09/11 12:30:05;;;;;;;10.13;5.97;;;29.30;1.00;;;;;;5112237;27;46445;-80
2023/09/11 12:32:30;;;;;;;9.13;5.70;;;29.20;1.00;;;;;;5115073;27;46404;-82
2023/09/11 12:34:56;;;;;;;7.07;5.43;;;29.20;1.50;;;;;;5093004;27;45950;-81
2023/09/11 12:37:22;;;;;;;7.57;5.30;;;29.30;1.60;;;;;;5110756;27;46667;-84
2023/09/11 12:39:48;;;;;;;8.30;5.30;;;29.30;1.30;;;;;;5111133;27;46724;-81